createdAt,value
2022-08-16T00:00:03.597Z,21.12
2022-08-16T00:01:06.660Z,21.07
2022-08-16T00:02:12.815Z,21.07
2022-08-16T00:03:15.410Z,21.01
2022-08-16T00:04:17.719Z,20.98
2022-08-16T00:05:20.706Z,21.07
2022-08-16T00:06:23.447Z,21.14
2022-08-16T00:07:25.091Z,21.13
2022-08-16T00:08:36.900Z,21.21
2022-08-16T00:09:39.252Z,21.19
2022-08-16T00:10:43.688Z,21.10
2022-08-16T00:11:47.343Z,21.06
2022-08-16T00:12:55.153Z,21.16
2022-08-16T00:13:57.597Z,21.25
2022-08-16T00:15:11.727Z,21.28
2022-08-16T00:17:01.661Z,21.32
2022-08-16T00:17:57.030Z,21.46
2022-08-16T00:18:56.743Z,21.60
2022-08-16T00:19:59.822Z,21.71
2022-08-16T00:21:01.585Z,21.78
2022-08-16T00:22:12.863Z,21.83
2022-08-16T00:23:16.927Z,21.87
2022-08-16T00:24:30.859Z,21.91
2022-08-16T00:26:33.837Z,21.94
2022-08-16T00:26:56.563Z,21.95
2022-08-16T00:27:58.160Z,21.99
2022-08-16T00:29:00.095Z,22.04
2022-08-16T00:30:19.083Z,22.05
2022-08-16T00:31:24.043Z,22.04
2022-08-16T00:32:26.210Z,22.03
2022-08-16T00:33:34.454Z,21.98
2022-08-16T00:34:43.744Z,21.92
2022-08-16T00:35:54.302Z,21.80
2022-08-16T00:36:56.923Z,21.70
2022-08-16T00:38:03.123Z,21.59
2022-08-16T00:39:24.767Z,21.38
2022-08-16T00:40:36.567Z,21.25
2022-08-16T00:41:38.737Z,21.14
2022-08-16T00:42:40.538Z,21.01
2022-08-16T00:43:44.358Z,21.00
2022-08-16T00:44:54.302Z,21.01
2022-08-16T00:46:22.378Z,20.95
2022-08-16T00:47:48.954Z,20.98
2022-08-16T00:48:52.469Z,20.94
2022-08-16T00:49:56.585Z,20.91
2022-08-16T00:50:59.855Z,20.87
2022-08-16T00:52:01.710Z,20.85
2022-08-16T00:53:09.093Z,20.85
2022-08-16T00:54:13.395Z,20.79
2022-08-16T00:55:15.642Z,20.80
2022-08-16T00:56:56.825Z,20.80
2022-08-16T00:57:59.723Z,20.68
2022-08-16T00:59:03.375Z,20.63
2022-08-16T01:00:09.032Z,20.53
2022-08-16T01:01:12.034Z,20.49
2022-08-16T01:02:30.850Z,20.48
2022-08-16T01:03:36.172Z,20.50
2022-08-16T01:04:38.386Z,20.44
2022-08-16T01:05:42.864Z,20.45
2022-08-16T01:06:49.122Z,20.45
2022-08-16T01:08:35.220Z,20.45
2022-08-16T01:09:26.323Z,20.42
2022-08-16T01:10:38.084Z,20.43
2022-08-16T01:11:53.747Z,20.43
2022-08-16T01:12:57.296Z,20.46
2022-08-16T01:14:20.101Z,20.52
2022-08-16T01:15:22.512Z,20.58
2022-08-16T01:16:28.471Z,20.65
2022-08-16T01:17:36.808Z,20.67
2022-08-16T01:18:47.150Z,20.74
2022-08-16T01:19:56.907Z,20.78
2022-08-16T01:21:11.719Z,20.85
2022-08-16T01:22:46.977Z,20.90
2022-08-16T01:24:00.968Z,20.90
2022-08-16T01:25:08.225Z,20.92
2022-08-16T01:26:34.843Z,20.96
2022-08-16T01:27:57.713Z,20.95
2022-08-16T01:29:02.685Z,20.81
2022-08-16T01:30:19.271Z,20.82
2022-08-16T01:31:22.874Z,20.90
2022-08-16T01:32:36.114Z,20.96
2022-08-16T01:33:37.713Z,21.01
2022-08-16T01:34:47.337Z,21.00
2022-08-16T01:36:09.371Z,21.08
2022-08-16T01:37:16.205Z,21.18
2022-08-16T01:38:39.972Z,21.23
2022-08-16T01:39:48.729Z,21.30
2022-08-16T01:40:53.878Z,21.36
2022-08-16T01:41:55.811Z,21.42
2022-08-16T01:42:57.956Z,21.42
2022-08-16T01:44:01.376Z,21.43
2022-08-16T01:45:04.928Z,21.45
2022-08-16T01:46:30.175Z,21.41
2022-08-16T01:47:33.923Z,21.19
2022-08-16T01:48:35.557Z,21.15
2022-08-16T01:49:45.376Z,21.16
2022-08-16T01:51:08.346Z,20.95
2022-08-16T01:52:28.038Z,20.77
2022-08-16T01:53:31.983Z,20.65
2022-08-16T01:54:37.578Z,20.58
2022-08-16T01:55:40.905Z,20.51
2022-08-16T01:56:43.002Z,20.42
2022-08-16T01:57:53.267Z,20.32
2022-08-16T01:59:00.730Z,20.26
2022-08-16T02:00:07.011Z,20.16
2022-08-16T02:01:20.783Z,20.06
2022-08-16T02:02:28.785Z,20.01
2022-08-16T02:03:30.635Z,20.08
2022-08-16T02:04:54.336Z,20.18
2022-08-16T02:05:55.612Z,20.19
2022-08-16T02:06:59.347Z,20.22
2022-08-16T02:08:01.584Z,20.27
2022-08-16T02:09:05.413Z,20.30
2022-08-16T02:10:08.477Z,20.40
2022-08-16T02:11:10.663Z,20.50
2022-08-16T02:12:40.128Z,20.60
2022-08-16T02:13:37.084Z,20.72
2022-08-16T02:14:43.743Z,20.77
2022-08-16T02:15:46.282Z,20.79
2022-08-16T02:16:52.684Z,20.81
2022-08-16T02:17:56.763Z,20.84
2022-08-16T02:18:59.401Z,20.89
2022-08-16T02:20:01.089Z,20.95
2022-08-16T02:21:04.370Z,20.99
2022-08-16T02:22:33.494Z,21.00
2022-08-16T02:23:29.919Z,21.00
2022-08-16T02:24:42.058Z,20.99
2022-08-16T02:25:52.195Z,20.99
2022-08-16T02:26:56.428Z,20.98
2022-08-16T02:27:59.513Z,20.97
2022-08-16T02:29:02.034Z,20.98
2022-08-16T02:30:06.502Z,20.99
2022-08-16T02:31:11.373Z,21.01
2022-08-16T02:32:50.366Z,21.02
2022-08-16T02:33:43.826Z,21.02
2022-08-16T02:34:46.444Z,21.02
2022-08-16T02:35:55.137Z,21.02
2022-08-16T02:37:00.216Z,20.96
2022-08-16T02:38:08.902Z,20.87
2022-08-16T02:39:12.587Z,20.82
2022-08-16T02:40:17.288Z,20.79
2022-08-16T02:41:19.890Z,20.78
2022-08-16T02:42:21.893Z,20.79
2022-08-16T02:43:26.872Z,20.79
2022-08-16T02:44:30.365Z,20.79
2022-08-16T02:45:32.468Z,20.72
2022-08-16T02:46:34.570Z,20.68
2022-08-16T02:48:00.397Z,20.71
2022-08-16T02:49:00.216Z,20.66
2022-08-16T02:50:53.945Z,20.61
2022-08-16T02:51:26.245Z,20.61
2022-08-16T02:52:29.444Z,20.51
2022-08-16T02:53:32.344Z,20.47
2022-08-16T02:54:35.010Z,20.49
2022-08-16T02:55:40.887Z,20.52
2022-08-16T02:56:43.359Z,20.47
2022-08-16T02:57:54.051Z,20.48
2022-08-16T02:58:56.604Z,20.50
2022-08-16T02:59:58.503Z,20.53
2022-08-16T03:01:01.343Z,20.56
2022-08-16T03:02:08.059Z,20.60
2022-08-16T03:03:10.732Z,20.66
2022-08-16T03:04:39.885Z,20.67
2022-08-16T03:05:34.099Z,20.56
2022-08-16T03:06:42.445Z,20.44
2022-08-16T03:07:50.894Z,20.35
2022-08-16T03:08:54.026Z,20.23
2022-08-16T03:09:55.688Z,20.03
2022-08-16T03:11:02.525Z,19.82
2022-08-16T03:12:05.690Z,19.59
2022-08-16T03:13:12.270Z,19.43
2022-08-16T03:14:21.361Z,19.21
2022-08-16T03:15:26.409Z,19.10
2022-08-16T03:16:38.758Z,19.07
2022-08-16T03:17:53.106Z,18.99
2022-08-16T03:18:56.047Z,19.01
2022-08-16T03:19:59.844Z,19.04
2022-08-16T03:21:02.111Z,19.05
2022-08-16T03:22:04.309Z,19.14
2022-08-16T03:23:06.857Z,19.20
2022-08-16T03:24:28.533Z,19.22
2022-08-16T03:25:40.929Z,19.29
2022-08-16T03:26:46.395Z,19.28
2022-08-16T03:27:48.142Z,19.33
2022-08-16T03:28:51.684Z,19.38
2022-08-16T03:29:54.310Z,19.50
2022-08-16T03:30:56.682Z,19.64
2022-08-16T03:31:59.733Z,19.79
2022-08-16T03:33:04.181Z,19.85
2022-08-16T03:34:07.026Z,19.89
2022-08-16T03:35:10.493Z,19.96
2022-08-16T03:36:30.981Z,20.04
2022-08-16T03:38:01.707Z,20.10
2022-08-16T03:38:56.458Z,20.12
2022-08-16T03:40:02.624Z,20.12
2022-08-16T03:41:24.463Z,20.10
2022-08-16T03:42:27.624Z,20.11
2022-08-16T03:43:51.285Z,20.15
2022-08-16T03:44:51.608Z,20.13
2022-08-16T03:46:04.826Z,20.11
2022-08-16T03:47:10.391Z,20.06
2022-08-16T03:48:14.940Z,20.01
2022-08-16T03:49:20.222Z,19.97
2022-08-16T03:50:26.159Z,19.99
2022-08-16T03:51:28.571Z,19.98
2022-08-16T03:52:31.506Z,20.00
2022-08-16T03:53:38.103Z,20.04
2022-08-16T03:54:53.161Z,20.08
2022-08-16T03:55:55.949Z,20.10
2022-08-16T03:56:59.095Z,20.11
2022-08-16T03:58:00.841Z,20.11
2022-08-16T03:59:02.473Z,20.09
2022-08-16T04:00:20.210Z,20.08
2022-08-16T04:01:34.687Z,20.01
2022-08-16T04:02:36.565Z,19.96
2022-08-16T04:03:42.046Z,19.88
2022-08-16T04:04:47.021Z,19.84
2022-08-16T04:05:51.209Z,19.81
2022-08-16T04:06:55.872Z,19.80
2022-08-16T04:07:57.514Z,19.84
2022-08-16T04:08:59.108Z,19.90
2022-08-16T04:10:36.097Z,19.93
2022-08-16T04:11:36.771Z,19.97
2022-08-16T04:12:53.350Z,20.04
2022-08-16T04:14:08.705Z,20.07
2022-08-16T04:15:24.000Z,20.00
2022-08-16T04:16:28.271Z,19.89
2022-08-16T04:17:30.102Z,19.81
2022-08-16T04:18:32.346Z,19.62
2022-08-16T04:19:35.492Z,19.44
2022-08-16T04:20:38.885Z,19.39
2022-08-16T04:21:45.938Z,19.31
2022-08-16T04:22:49.395Z,19.33
2022-08-16T04:23:51.361Z,19.42
2022-08-16T04:24:59.278Z,19.40
2022-08-16T04:26:01.879Z,19.34
2022-08-16T04:27:04.788Z,19.31
2022-08-16T04:28:54.357Z,19.35
2022-08-16T04:29:44.022Z,19.34
2022-08-16T04:30:50.523Z,19.35
2022-08-16T04:31:56.590Z,19.40
2022-08-16T04:33:00.440Z,19.46
2022-08-16T04:34:02.093Z,19.54
2022-08-16T04:35:13.635Z,19.66
2022-08-16T04:36:20.207Z,19.81
2022-08-16T04:37:22.161Z,19.82
2022-08-16T04:38:24.645Z,19.89
2022-08-16T04:39:36.672Z,19.95
2022-08-16T04:40:50.216Z,20.08
2022-08-16T04:41:57.015Z,20.19
2022-08-16T04:43:02.695Z,20.37
2022-08-16T04:44:32.764Z,20.51
2022-08-16T04:45:36.273Z,20.57
2022-08-16T04:47:00.819Z,20.68
2022-08-16T04:48:00.298Z,20.87
2022-08-16T04:49:03.738Z,21.04
2022-08-16T04:50:14.474Z,21.18
2022-08-16T04:51:16.285Z,21.28
2022-08-16T04:52:33.496Z,21.39
2022-08-16T04:53:37.101Z,21.51
2022-08-16T04:54:43.125Z,21.64
2022-08-16T04:55:44.878Z,21.77
2022-08-16T04:56:46.553Z,21.79
2022-08-16T04:57:53.973Z,21.83
2022-08-16T04:58:57.812Z,21.94
2022-08-16T04:59:59.747Z,22.07
2022-08-16T05:01:21.676Z,22.09
2022-08-16T05:02:43.421Z,22.26
2022-08-16T05:04:00.845Z,22.37
2022-08-16T05:05:03.818Z,22.49
2022-08-16T05:06:07.044Z,22.62
2022-08-16T05:07:14.616Z,22.73
2022-08-16T05:08:28.735Z,22.78
2022-08-16T05:09:31.657Z,22.68
2022-08-16T05:10:38.384Z,22.71
2022-08-16T05:11:40.670Z,22.83
2022-08-16T05:12:44.814Z,22.96
2022-08-16T05:13:47.853Z,23.07
2022-08-16T05:15:01.832Z,23.10
2022-08-16T05:16:06.143Z,23.20
2022-08-16T05:17:07.826Z,23.33
2022-08-16T05:18:16.153Z,23.35
2022-08-16T05:19:19.022Z,23.32
2022-08-16T05:20:38.925Z,23.41
2022-08-16T05:21:43.006Z,23.55
2022-08-16T05:22:44.899Z,23.68
2022-08-16T05:23:55.458Z,23.78
2022-08-16T05:25:00.102Z,23.83
2022-08-16T05:26:02.471Z,23.95
2022-08-16T05:27:11.303Z,24.00
2022-08-16T05:28:13.806Z,24.04
2022-08-16T05:29:15.508Z,24.08
2022-08-16T05:30:36.884Z,24.20
2022-08-16T05:31:47.895Z,24.37
2022-08-16T05:32:55.585Z,24.50
2022-08-16T05:33:59.524Z,24.55
2022-08-16T05:35:01.378Z,24.62
2022-08-16T05:36:03.840Z,24.56
2022-08-16T05:37:05.682Z,24.42
2022-08-16T05:38:30.982Z,24.43
2022-08-16T05:39:29.252Z,24.51
2022-08-16T05:40:35.469Z,24.44
2022-08-16T05:41:45.154Z,24.40
2022-08-16T05:42:49.437Z,23.97
2022-08-16T05:43:51.302Z,23.85
2022-08-16T05:45:01.282Z,23.90
2022-08-16T05:46:29.528Z,24.12
2022-08-16T05:47:30.382Z,24.20
2022-08-16T05:48:32.027Z,24.27
2022-08-16T05:49:38.374Z,24.38
2022-08-16T05:50:41.819Z,24.46
2022-08-16T05:51:46.353Z,24.53
2022-08-16T05:52:48.102Z,24.52
2022-08-16T05:53:50.752Z,24.66
2022-08-16T05:55:01.097Z,24.56
2022-08-16T05:56:04.461Z,24.42
2022-08-16T05:57:07.744Z,24.37
2022-08-16T05:58:28.978Z,24.58
2022-08-16T05:59:33.790Z,24.91
2022-08-16T06:00:35.872Z,25.17
2022-08-16T06:01:40.047Z,25.43
2022-08-16T06:02:42.634Z,25.64
2022-08-16T06:03:44.510Z,25.81
2022-08-16T06:04:46.186Z,25.97
2022-08-16T06:05:47.837Z,26.14
2022-08-16T06:06:55.872Z,26.35
2022-08-16T06:07:59.319Z,26.40
2022-08-16T06:09:01.026Z,26.31
2022-08-16T06:10:04.097Z,26.00
2022-08-16T06:11:10.105Z,26.07
2022-08-16T06:12:26.682Z,26.23
2022-08-16T06:13:32.746Z,26.29
2022-08-16T06:14:34.492Z,26.18
2022-08-16T06:15:37.960Z,25.84
2022-08-16T06:16:43.235Z,25.63
2022-08-16T06:17:46.206Z,25.61
2022-08-16T06:18:47.964Z,25.76
2022-08-16T06:19:49.547Z,25.88
2022-08-16T06:20:55.720Z,25.86
2022-08-16T06:21:57.690Z,25.90
2022-08-16T06:23:03.943Z,25.97
2022-08-16T06:24:53.953Z,25.99
2022-08-16T06:25:36.420Z,26.18
2022-08-16T06:26:57.440Z,26.42
2022-08-16T06:27:59.969Z,26.72
2022-08-16T06:29:02.858Z,26.98
2022-08-16T06:30:07.658Z,27.16
2022-08-16T06:31:12.163Z,27.22
2022-08-16T06:32:27.528Z,27.37
2022-08-16T06:33:30.208Z,27.38
2022-08-16T06:34:57.341Z,27.62
2022-08-16T06:36:04.245Z,27.89
2022-08-16T06:37:09.983Z,28.13
2022-08-16T06:38:32.670Z,28.09
2022-08-16T06:39:34.336Z,27.88
2022-08-16T06:40:36.268Z,27.83
2022-08-16T06:41:39.710Z,27.84
2022-08-16T06:42:47.630Z,27.81
2022-08-16T06:43:51.180Z,27.73
2022-08-16T06:44:52.927Z,27.79
2022-08-16T06:45:55.658Z,27.99
2022-08-16T06:46:57.352Z,28.24
2022-08-16T06:47:58.981Z,28.46
2022-08-16T06:49:06.167Z,28.63
2022-08-16T06:50:08.255Z,28.50
2022-08-16T06:51:09.952Z,28.38
2022-08-16T06:52:57.232Z,28.29
2022-08-16T06:53:36.538Z,28.39
2022-08-16T06:54:38.363Z,28.57
2022-08-16T06:55:40.364Z,28.56
2022-08-16T06:56:42.605Z,28.52
2022-08-16T06:57:44.958Z,28.44
2022-08-16T06:58:46.584Z,28.40
2022-08-16T06:59:52.390Z,28.26
2022-08-16T07:00:54.994Z,28.31
2022-08-16T07:01:59.820Z,28.22
2022-08-16T07:03:03.620Z,28.32
2022-08-16T07:04:32.377Z,28.47
2022-08-16T07:05:41.323Z,28.54
2022-08-16T07:06:44.944Z,28.37
2022-08-16T07:07:50.811Z,28.42
2022-08-16T07:08:52.702Z,28.44
2022-08-16T07:09:55.111Z,28.29
2022-08-16T07:10:56.850Z,28.10
2022-08-16T07:12:03.190Z,28.09
2022-08-16T07:13:10.557Z,28.08
2022-08-16T07:14:25.588Z,27.98
2022-08-16T07:15:28.468Z,27.86
2022-08-16T07:16:30.393Z,27.97
2022-08-16T07:17:33.427Z,28.06
2022-08-16T07:18:36.739Z,28.34
2022-08-16T07:20:03.130Z,28.47
2022-08-16T07:21:02.466Z,28.85
2022-08-16T07:22:04.286Z,29.08
2022-08-16T07:23:13.130Z,28.49
2022-08-16T07:24:29.677Z,28.19
2022-08-16T07:25:32.520Z,28.25
2022-08-16T07:26:34.195Z,27.97
2022-08-16T07:27:37.161Z,27.84
2022-08-16T07:28:39.212Z,27.96
2022-08-16T07:29:41.838Z,28.28
2022-08-16T07:30:47.019Z,28.65
2022-08-16T07:31:49.150Z,28.80
2022-08-16T07:32:51.452Z,28.98
2022-08-16T07:33:54.943Z,29.17
2022-08-16T07:34:56.810Z,29.44
2022-08-16T07:35:59.756Z,29.61
2022-08-16T07:37:05.547Z,29.68
2022-08-16T07:38:08.054Z,29.80
2022-08-16T07:39:09.737Z,29.50
2022-08-16T07:40:12.920Z,29.36
2022-08-16T07:41:15.374Z,29.63
2022-08-16T07:42:25.932Z,29.75
2022-08-16T07:43:30.667Z,29.74
2022-08-16T07:44:49.211Z,29.72
2022-08-16T07:45:53.469Z,29.90
2022-08-16T07:46:56.580Z,30.03
2022-08-16T07:47:58.222Z,30.29
2022-08-16T07:49:02.314Z,30.28
2022-08-16T07:50:07.669Z,30.23
2022-08-16T07:51:09.478Z,30.27
2022-08-16T07:52:18.734Z,30.50
2022-08-16T07:53:21.929Z,30.84
2022-08-16T07:54:37.718Z,31.07
2022-08-16T07:55:47.656Z,31.33
2022-08-16T07:56:49.578Z,31.41
2022-08-16T07:58:01.141Z,31.56
2022-08-16T07:59:07.828Z,31.78
2022-08-16T08:00:18.338Z,31.93
2022-08-16T08:01:24.801Z,32.08
2022-08-16T08:02:30.205Z,31.65
2022-08-16T08:03:36.145Z,31.40
2022-08-16T08:04:42.134Z,31.20
2022-08-16T08:05:43.928Z,30.98
2022-08-16T08:06:51.179Z,30.97
2022-08-16T08:07:57.627Z,31.04
2022-08-16T08:09:00.621Z,30.88
2022-08-16T08:10:03.878Z,30.72
2022-08-16T08:11:09.037Z,30.77
2022-08-16T08:12:32.663Z,30.68
2022-08-16T08:13:42.676Z,30.46
2022-08-16T08:14:44.536Z,30.56
2022-08-16T08:15:53.021Z,30.60
2022-08-16T08:16:54.933Z,30.67
2022-08-16T08:18:20.934Z,30.72
2022-08-16T08:19:19.588Z,30.86
2022-08-16T08:20:28.093Z,31.17
2022-08-16T08:22:00.833Z,31.41
2022-08-16T08:23:00.739Z,31.63
2022-08-16T08:24:03.132Z,31.79
2022-08-16T08:25:12.966Z,31.99
2022-08-16T08:26:18.470Z,32.21
2022-08-16T08:27:23.064Z,32.31
2022-08-16T08:28:25.559Z,32.48
2022-08-16T08:29:36.900Z,32.54
2022-08-16T08:30:51.867Z,32.63
2022-08-16T08:32:01.568Z,32.74
2022-08-16T08:33:03.563Z,32.66
2022-08-16T08:34:07.255Z,32.58
2022-08-16T08:35:11.791Z,32.66
2022-08-16T08:36:21.945Z,32.69
2022-08-16T08:37:24.270Z,32.77
2022-08-16T08:38:45.218Z,32.64
2022-08-16T08:39:55.292Z,32.43
2022-08-16T08:40:57.245Z,32.14
2022-08-16T08:42:03.691Z,31.94
2022-08-16T08:43:11.917Z,31.89
2022-08-16T08:44:28.387Z,32.02
2022-08-16T08:45:49.198Z,32.29
2022-08-16T08:47:00.107Z,32.53
2022-08-16T08:48:03.960Z,32.52
2022-08-16T08:49:08.829Z,32.49
2022-08-16T08:50:10.949Z,32.53
2022-08-16T08:51:12.579Z,32.55
2022-08-16T08:52:34.890Z,32.63
2022-08-16T08:53:36.176Z,32.75
2022-08-16T08:54:38.597Z,32.84
2022-08-16T08:55:40.194Z,32.75
2022-08-16T08:56:45.689Z,32.55
2022-08-16T08:57:47.952Z,32.63
2022-08-16T08:58:54.643Z,32.32
2022-08-16T09:00:00.718Z,32.33
2022-08-16T09:01:05.334Z,32.49
2022-08-16T09:02:11.635Z,32.54
2022-08-16T09:03:14.914Z,32.63
2022-08-16T09:04:17.944Z,32.62
2022-08-16T09:05:37.212Z,32.33
2022-08-16T09:06:43.912Z,32.27
2022-08-16T09:08:00.539Z,32.32
2022-08-16T09:09:04.539Z,32.47
2022-08-16T09:10:20.922Z,32.42
2022-08-16T09:11:23.217Z,32.23
2022-08-16T09:12:42.600Z,31.57
2022-08-16T09:13:48.788Z,31.42
2022-08-16T09:14:52.583Z,31.59
2022-08-16T09:15:58.242Z,31.82
2022-08-16T09:17:04.078Z,31.97
2022-08-16T09:18:24.927Z,32.20
2022-08-16T09:19:32.375Z,32.38
2022-08-16T09:20:35.638Z,32.52
2022-08-16T09:21:57.734Z,32.59
2022-08-16T09:23:02.826Z,32.38
2022-08-16T09:24:09.837Z,32.03
2022-08-16T09:25:13.000Z,31.69
2022-08-16T09:26:45.001Z,31.44
2022-08-16T09:27:57.029Z,31.38
2022-08-16T09:29:15.345Z,31.50
2022-08-16T09:30:34.749Z,31.55
2022-08-16T09:31:41.314Z,31.69
2022-08-16T09:32:47.018Z,31.84
2022-08-16T09:33:49.264Z,31.99
2022-08-16T09:34:53.836Z,32.17
2022-08-16T09:36:01.214Z,32.38
2022-08-16T09:37:03.022Z,32.55
2022-08-16T09:38:31.137Z,32.71
2022-08-16T09:39:41.314Z,32.77
2022-08-16T09:40:47.141Z,32.80
2022-08-16T09:41:53.449Z,32.83
2022-08-16T09:42:59.113Z,32.91
2022-08-16T09:45:11.144Z,32.96
2022-08-16T09:45:28.602Z,33.09
2022-08-16T09:46:45.267Z,33.16
2022-08-16T09:47:57.343Z,33.14
2022-08-16T09:48:59.834Z,32.93
2022-08-16T09:50:11.818Z,32.57
2022-08-16T09:51:14.066Z,32.49
2022-08-16T09:52:16.036Z,32.55
2022-08-16T09:53:23.015Z,32.70
2022-08-16T09:54:32.579Z,32.77
2022-08-16T09:55:44.340Z,32.77
2022-08-16T09:56:52.489Z,32.75
2022-08-16T09:57:55.821Z,32.82
2022-08-16T09:59:05.812Z,32.75
2022-08-16T10:00:42.336Z,32.73
2022-08-16T10:01:34.623Z,32.74
2022-08-16T10:02:44.154Z,32.72
2022-08-16T10:04:02.686Z,32.62
2022-08-16T10:05:06.105Z,32.64
2022-08-16T10:06:07.835Z,32.65
2022-08-16T10:07:15.876Z,32.64
2022-08-16T10:08:25.387Z,32.66
2022-08-16T10:09:45.014Z,32.69
2022-08-16T10:11:09.541Z,32.67
2022-08-16T10:12:29.757Z,32.56
2022-08-16T10:13:33.883Z,32.38
2022-08-16T10:14:36.520Z,32.19
2022-08-16T10:15:40.719Z,32.19
2022-08-16T10:16:45.777Z,32.25
2022-08-16T10:18:00.989Z,32.32
2022-08-16T10:19:06.994Z,32.09
2022-08-16T10:20:11.480Z,32.14
2022-08-16T10:21:22.670Z,32.37
2022-08-16T10:22:25.252Z,32.48
2022-08-16T10:23:28.702Z,32.29
2022-08-16T10:24:30.863Z,32.23
2022-08-16T10:27:00.759Z,32.59
2022-08-16T10:27:17.692Z,32.43
2022-08-16T10:28:28.969Z,32.70
2022-08-16T10:29:59.181Z,32.71
2022-08-16T10:30:56.172Z,32.87
2022-08-16T10:32:00.709Z,32.95
2022-08-16T10:33:05.716Z,33.07
2022-08-16T10:34:23.980Z,33.17
2022-08-16T10:35:32.835Z,33.32
2022-08-16T10:36:38.834Z,33.45
2022-08-16T10:37:41.461Z,33.45
2022-08-16T10:38:43.268Z,33.42
2022-08-16T10:39:44.906Z,33.24
2022-08-16T10:40:48.130Z,32.98
2022-08-16T10:41:49.863Z,32.94
2022-08-16T10:42:51.712Z,32.89
2022-08-16T10:43:53.296Z,32.81
2022-08-16T10:44:55.065Z,32.82
2022-08-16T10:46:00.201Z,32.93
2022-08-16T10:47:03.762Z,33.07
2022-08-16T10:48:27.276Z,33.13
2022-08-16T10:49:30.285Z,33.21
2022-08-16T10:50:33.952Z,33.25
2022-08-16T10:52:02.835Z,33.32
2022-08-16T10:53:07.836Z,33.43
2022-08-16T10:54:29.636Z,33.54
2022-08-16T10:55:43.712Z,33.58
2022-08-16T10:56:55.456Z,33.51
2022-08-16T10:58:00.112Z,33.14
2022-08-16T11:00:39.205Z,32.80
2022-08-16T11:01:44.019Z,32.80
2022-08-16T11:02:58.007Z,32.97
2022-08-16T11:04:02.714Z,33.18
2022-08-16T11:05:24.329Z,33.36
2022-08-16T11:06:26.978Z,33.41
2022-08-16T11:07:51.931Z,33.49
2022-08-16T11:09:20.993Z,33.55
2022-08-16T11:10:21.146Z,33.21
2022-08-16T11:12:13.713Z,33.06
2022-08-16T11:14:24.521Z,33.31
2022-08-16T11:15:26.334Z,33.33
2022-08-16T11:19:17.196Z,33.21
2022-08-16T11:23:05.041Z,32.92
2022-08-16T11:24:39.949Z,32.81
2022-08-16T11:28:36.505Z,32.80
2022-08-16T11:29:38.841Z,32.79
2022-08-16T11:30:41.707Z,32.77
2022-08-16T11:31:45.999Z,32.80
2022-08-16T11:32:56.175Z,32.79
2022-08-16T11:33:57.896Z,32.65
2022-08-16T11:35:10.979Z,32.49
2022-08-16T11:36:25.102Z,32.50
2022-08-16T11:38:04.594Z,32.61
2022-08-16T11:38:57.811Z,32.66
2022-08-16T11:40:00.293Z,32.70
2022-08-16T11:41:03.505Z,32.72
2022-08-16T11:42:28.137Z,32.80
2022-08-16T11:43:34.301Z,32.89
2022-08-16T11:44:43.749Z,33.00
2022-08-16T11:45:57.541Z,33.14
2022-08-16T11:47:03.599Z,33.24
2022-08-16T11:48:06.079Z,33.33
2022-08-16T11:49:12.730Z,33.44
2022-08-16T11:50:16.645Z,33.49
2022-08-16T11:51:18.894Z,33.41
2022-08-16T11:52:21.800Z,33.26
2022-08-16T11:53:24.347Z,33.02
2022-08-16T11:54:33.267Z,33.07
2022-08-16T11:55:39.686Z,33.17
2022-08-16T11:56:57.485Z,33.14
2022-08-16T11:58:00.797Z,33.20
2022-08-16T11:59:02.837Z,33.26
2022-08-16T12:00:08.029Z,33.05
2022-08-16T12:01:44.209Z,32.97
2022-08-16T12:02:51.316Z,33.13
2022-08-16T12:03:52.923Z,33.20
2022-08-16T12:04:55.094Z,33.16
2022-08-16T12:05:57.636Z,33.10
2022-08-16T12:07:00.162Z,33.07
2022-08-16T12:08:07.617Z,33.12
2022-08-16T12:09:10.092Z,33.18
2022-08-16T12:10:16.788Z,33.24
2022-08-16T12:11:19.587Z,33.24
2022-08-16T12:12:24.071Z,33.21
2022-08-16T12:13:26.503Z,33.17
2022-08-16T12:14:28.161Z,33.15
2022-08-16T12:15:36.889Z,33.19
2022-08-16T12:16:39.477Z,33.27
2022-08-16T12:17:50.556Z,33.44
2022-08-16T12:18:52.505Z,33.55
2022-08-16T12:19:54.104Z,33.50
2022-08-16T12:20:58.367Z,33.36
2022-08-16T12:22:05.618Z,33.45
2022-08-16T12:23:20.198Z,33.42
2022-08-16T12:24:23.808Z,33.46
2022-08-16T12:25:28.760Z,33.42
2022-08-16T12:26:32.804Z,33.28
2022-08-16T12:27:40.899Z,32.97
2022-08-16T12:28:54.456Z,32.90
2022-08-16T12:29:58.595Z,32.81
2022-08-16T12:31:00.820Z,32.71
2022-08-16T12:32:38.383Z,32.62
2022-08-16T12:33:25.525Z,32.56
2022-08-16T12:34:28.822Z,32.52
2022-08-16T12:35:32.893Z,32.47
2022-08-16T12:36:35.446Z,32.41
2022-08-16T12:37:37.162Z,32.36
2022-08-16T12:38:48.648Z,32.36
2022-08-16T12:39:52.881Z,32.42
2022-08-16T12:40:57.080Z,32.43
2022-08-16T12:41:59.295Z,32.51
2022-08-16T12:43:05.513Z,32.54
2022-08-16T12:44:07.316Z,32.55
2022-08-16T12:45:14.396Z,32.49
2022-08-16T12:46:16.585Z,32.54
2022-08-16T12:47:37.733Z,32.53
2022-08-16T12:48:58.168Z,32.55
2022-08-16T12:50:00.025Z,32.58
2022-08-16T12:51:05.146Z,32.55
2022-08-16T12:52:33.722Z,32.54
2022-08-16T12:53:39.991Z,32.64
2022-08-16T12:54:41.875Z,32.67
2022-08-16T12:55:44.858Z,32.71
2022-08-16T12:56:46.911Z,32.77
2022-08-16T12:57:57.936Z,32.80
2022-08-16T12:59:03.087Z,32.92
2022-08-16T13:00:26.958Z,33.05
2022-08-16T13:01:36.699Z,33.06
2022-08-16T13:02:38.766Z,33.05
2022-08-16T13:03:41.451Z,33.03
2022-08-16T13:04:43.154Z,33.04
2022-08-16T13:05:53.535Z,33.03
2022-08-16T13:06:59.049Z,32.97
2022-08-16T13:08:00.974Z,32.84
2022-08-16T13:09:18.313Z,32.81
2022-08-16T13:10:38.042Z,32.73
2022-08-16T13:11:48.388Z,32.70
2022-08-16T13:12:56.914Z,32.68
2022-08-16T13:13:59.384Z,32.65
2022-08-16T13:15:02.347Z,32.56
2022-08-16T13:16:15.202Z,32.51
2022-08-16T13:17:30.027Z,32.50
2022-08-16T13:18:35.768Z,32.49
2022-08-16T13:20:06.578Z,32.49
2022-08-16T13:20:59.914Z,32.42
2022-08-16T13:22:01.566Z,32.40
2022-08-16T13:23:09.973Z,32.35
2022-08-16T13:24:12.675Z,32.29
2022-08-16T13:25:22.909Z,32.26
2022-08-16T13:26:26.407Z,32.21
2022-08-16T13:27:34.899Z,32.06
2022-08-16T13:28:49.770Z,31.72
2022-08-16T13:29:57.628Z,31.53
2022-08-16T13:31:00.317Z,31.34
2022-08-16T13:32:02.437Z,31.20
2022-08-16T13:33:10.861Z,31.04
2022-08-16T13:34:18.442Z,30.91
2022-08-16T13:35:22.660Z,30.78
2022-08-16T13:36:46.020Z,30.71
2022-08-16T13:37:49.457Z,30.70
2022-08-16T13:38:53.390Z,30.64
2022-08-16T13:39:56.154Z,30.62
2022-08-16T13:40:58.117Z,30.63
2022-08-16T13:42:03.138Z,30.66
2022-08-16T13:43:04.970Z,30.64
2022-08-16T13:44:09.204Z,30.66
2022-08-16T13:45:15.703Z,30.56
2022-08-16T13:46:17.745Z,30.56
2022-08-16T13:47:19.677Z,30.70
2022-08-16T13:48:24.922Z,30.79
2022-08-16T13:49:27.294Z,30.89
2022-08-16T13:50:49.632Z,30.97
2022-08-16T13:51:53.904Z,30.98
2022-08-16T13:52:56.405Z,31.00
2022-08-16T13:54:03.823Z,31.00
2022-08-16T13:55:06.389Z,30.93
2022-08-16T13:56:25.057Z,30.82
2022-08-16T13:57:42.921Z,30.71
2022-08-16T13:58:54.005Z,30.64
2022-08-16T13:59:57.627Z,30.67
2022-08-16T14:01:01.804Z,30.63
2022-08-16T14:02:06.840Z,30.61
2022-08-16T14:03:09.465Z,30.60
2022-08-16T14:04:23.341Z,30.62
2022-08-16T14:05:28.398Z,30.71
2022-08-16T14:06:31.249Z,30.73
2022-08-16T14:07:33.010Z,30.79
2022-08-16T14:08:43.085Z,30.91
2022-08-16T14:09:44.982Z,30.96
2022-08-16T14:10:47.106Z,30.99
2022-08-16T14:11:53.314Z,31.02
2022-08-16T14:12:55.521Z,31.08
2022-08-16T14:13:59.135Z,31.09
2022-08-16T14:15:01.886Z,31.12
2022-08-16T14:16:04.950Z,31.22
2022-08-16T14:17:14.956Z,31.27
2022-08-16T14:18:20.497Z,31.23
2022-08-16T14:19:22.656Z,31.05
2022-08-16T14:20:26.021Z,31.00
2022-08-16T14:21:27.631Z,31.07
2022-08-16T14:22:42.580Z,31.03
2022-08-16T14:23:44.529Z,30.81
2022-08-16T14:24:50.148Z,30.76
2022-08-16T14:25:53.932Z,30.88
2022-08-16T14:26:56.111Z,31.01
2022-08-16T14:27:58.641Z,31.14
2022-08-16T14:29:03.828Z,31.23
2022-08-16T14:30:07.814Z,31.32
2022-08-16T14:31:09.598Z,31.29
2022-08-16T14:32:21.916Z,31.33
2022-08-16T14:33:33.268Z,31.43
2022-08-16T14:34:34.946Z,31.52
2022-08-16T14:35:48.958Z,31.62
2022-08-16T14:36:53.084Z,31.72
2022-08-16T14:37:57.038Z,31.80
2022-08-16T14:39:00.400Z,31.86
2022-08-16T14:40:03.296Z,31.92
2022-08-16T14:41:05.323Z,31.96